Time;durP1;ratioP1;P1;durP2;ratioP2;P2;SDS_P1;SDS_P2;PMS_P1;PMS_P2;Temp;Humidity;BMP_temperature;BMP_pressure;BME280_temperature;BME280_humidity;BME280_pressure;Samples;Min_cycle;Max_cycle;Signal;HPM_P1;HPM_P2
2021/06/29 00:02:12;;;;;;;2.67;2.20;;;18.80;99.90;;;;;;4984751;28;20045;-87
2021/06/29 00:04:38;;;;;;;5.07;2.20;;;18.60;99.90;;;;;;4982569;28;20037;-87
2021/06/29 00:07:03;;;;;;;6.43;2.58;;;18.50;99.90;;;;;;4977794;28;20026;-88
2021/06/29 00:09:29;;;;;;;6.63;2.20;;;18.40;99.90;;;;;;4977350;28;20057;-89
2021/06/29 00:11:56;;;;;;;8.75;2.58;;;18.40;99.90;;;;;;4977013;28;20022;-87
2021/06/29 00:14:22;;;;;;;3.97;2.30;;;18.20;99.90;;;;;;4976769;28;20031;-87
2021/06/29 00:16:48;;;;;;;7.80;2.47;;;18.30;99.90;;;;;;4994223;28;20124;-87
2021/06/29 00:19:13;;;;;;;5.03;2.63;;;18.20;99.90;;;;;;4976759;28;20053;-86
2021/06/29 00:21:39;;;;;;;3.58;2.80;;;18.20;99.90;;;;;;4976636;28;20034;-88
2021/06/29 00:24:05;;;;;;;2.47;2.25;;;18.20;99.90;;;;;;4976717;28;20109;-88
2021/06/29 00:26:31;;;;;;;4.32;2.53;;;18.20;99.90;;;;;;4976646;28;20450;-88
2021/06/29 00:28:58;;;;;;;3.63;2.20;;;18.20;99.90;;;;;;4976570;28;20054;-88
2021/06/29 00:31:24;;;;;;;4.35;2.10;;;18.40;99.90;;;;;;4976526;28;20041;-89
2021/06/29 00:33:50;;;;;;;2.70;2.00;;;18.30;99.90;;;;;;4976535;28;20027;-86
2021/06/29 00:36:16;;;;;;;3.65;2.40;;;18.20;99.90;;;;;;4976491;28;20518;-87
2021/06/29 00:38:43;;;;;;;4.35;2.50;;;18.20;99.90;;;;;;4976491;28;20057;-88
2021/06/29 00:41:09;;;;;;;4.53;2.40;;;18.00;99.90;;;;;;4993802;28;20117;-88
2021/06/29 00:43:34;;;;;;;7.13;2.63;;;18.00;99.90;;;;;;4993870;28;20206;-86
2021/06/29 00:46:00;;;;;;;6.00;2.70;;;18.10;99.90;;;;;;4993868;28;20026;-87
2021/06/29 00:48:26;;;;;;;2.65;2.45;;;18.30;99.90;;;;;;4976377;28;20027;-89
2021/06/29 00:50:52;;;;;;;4.88;2.97;;;18.20;99.90;;;;;;4993840;28;20363;-88
2021/06/29 00:53:18;;;;;;;4.95;2.80;;;18.20;99.90;;;;;;4993872;28;20023;-88
2021/06/29 00:55:44;;;;;;;6.18;3.30;;;18.30;99.90;;;;;;4976415;28;20027;-89
2021/06/29 00:58:12;;;;;;;7.22;3.60;;;18.30;99.90;;;;;;4976294;28;20375;-88
2021/06/29 01:00:41;;;;;;;5.95;3.50;;;18.20;99.90;;;;;;4993352;28;20457;-88
2021/06/29 01:03:07;;;;;;;7.22;3.13;;;18.20;99.90;;;;;;4993738;28;20110;-88
2021/06/29 01:05:33;;;;;;;7.97;3.60;;;18.30;99.90;;;;;;4993663;28;20057;-88
2021/06/29 01:07:59;;;;;;;5.22;3.63;;;18.40;99.90;;;;;;4976209;28;20029;-83
2021/06/29 01:10:26;;;;;;;5.90;3.10;;;18.30;99.90;;;;;;4993585;28;20100;-83
2021/06/29 01:12:52;;;;;;;6.75;3.35;;;18.30;99.90;;;;;;4976998;28;20535;-83
2021/06/29 01:15:25;;;;;;;5.45;3.38;;;18.40;99.90;;;;;;4979961;28;20026;-84
2021/06/29 01:17:56;;;;;;;4.73;3.57;;;18.40;99.90;;;;;;4979907;28;20026;-84
2021/06/29 01:20:27;;;;;;;7.20;3.50;;;18.40;99.90;;;;;;4979867;28;20034;-84
2021/06/29 01:22:56;;;;;;;7.50;3.38;;;18.50;99.90;;;;;;4979720;28;20501;-84
2021/06/29 01:25:26;;;;;;;4.07;3.05;;;18.50;99.90;;;;;;4979757;28;20033;-83
2021/06/29 01:28:10;;;;;;;4.07;3.22;;;18.60;99.90;;;;;;4979620;28;20113;-84
2021/06/29 01:33:22;;;;;;;9.80;3.40;;;18.40;99.90;;;;;;4997622;28;20520;-84
2021/06/29 01:35:48;;;;;;;5.65;2.60;;;18.60;99.90;;;;;;4979589;28;20023;-84
2021/06/29 01:38:18;;;;;;;4.68;2.90;;;18.70;99.90;;;;;;4979408;28;20026;-83
2021/06/29 01:40:43;;;;;;;6.43;3.20;;;18.50;99.90;;;;;;4979375;28;20160;-84
2021/06/29 01:43:09;;;;;;;4.25;3.33;;;18.50;99.90;;;;;;4979486;28;20125;-84
2021/06/29 01:45:35;;;;;;;7.15;3.20;;;18.40;99.90;;;;;;4997127;28;20023;-84
2021/06/29 01:48:04;;;;;;;9.15;3.25;;;18.30;99.90;;;;;;4979349;28;20026;-84
2021/06/29 01:50:29;;;;;;;11.75;4.00;;;18.30;99.90;;;;;;4979272;28;20026;-83
2021/06/29 01:53:00;;;;;;;5.88;3.78;;;18.10;99.90;;;;;;4979272;28;20033;-85
2021/06/29 01:55:27;;;;;;;3.97;3.00;;;18.00;99.90;;;;;;4979214;28;20105;-86
2021/06/29 01:57:53;;;;;;;7.95;3.33;;;17.90;99.90;;;;;;4979105;28;20486;-83
2021/06/29 02:00:19;;;;;;;9.57;3.60;;;17.90;99.90;;;;;;4978781;28;20063;-83
2021/06/29 02:02:47;;;;;;;5.72;3.90;;;17.80;99.90;;;;;;4978898;28;20031;-84
2021/06/29 02:05:12;;;;;;;8.60;3.50;;;17.90;99.90;;;;;;4996444;28;20053;-84
2021/06/29 02:07:38;;;;;;;10.35;3.35;;;17.80;99.90;;;;;;4978934;28;20389;-82
2021/06/29 02:10:05;;;;;;;9.50;3.70;;;18.00;99.90;;;;;;4978922;28;20030;-83
2021/06/29 02:12:31;;;;;;;4.65;2.83;;;17.90;99.90;;;;;;4978929;28;20031;-83
2021/06/29 02:14:56;;;;;;;6.95;2.83;;;17.90;99.90;;;;;;4996400;28;20049;-84
2021/06/29 02:17:22;;;;;;;5.85;2.83;;;18.10;99.90;;;;;;4978907;28;20121;-84
2021/06/29 02:19:48;;;;;;;6.38;2.58;;;18.10;99.90;;;;;;4996227;28;20149;-84
2021/06/29 02:22:14;;;;;;;4.55;2.50;;;18.20;99.90;;;;;;4978611;28;20037;-85
2021/06/29 02:24:40;;;;;;;5.07;2.55;;;18.00;99.90;;;;;;4978408;28;20022;-84
2021/06/29 02:27:06;;;;;;;6.03;2.20;;;18.10;99.90;;;;;;4978580;28;20069;-85
2021/06/29 02:29:32;;;;;;;4.28;2.60;;;18.20;99.90;;;;;;4995968;28;20022;-84
2021/06/29 02:31:57;;;;;;;3.58;2.22;;;18.20;99.90;;;;;;4978471;28;20032;-84
2021/06/29 02:34:23;;;;;;;6.93;2.40;;;18.20;99.90;;;;;;4978497;28;20097;-84
2021/06/29 02:36:49;;;;;;;4.93;2.92;;;18.10;99.90;;;;;;4996180;28;20033;-84
2021/06/29 02:39:14;;;;;;;5.75;2.05;;;18.20;99.90;;;;;;4978369;28;20030;-84
2021/06/29 02:41:40;;;;;;;4.47;2.17;;;18.20;99.90;;;;;;4978287;28;20042;-83
2021/06/29 02:44:06;;;;;;;3.78;2.03;;;18.20;99.90;;;;;;4978369;28;20029;-84
2021/06/29 02:46:34;;;;;;;5.95;2.47;;;18.30;99.90;;;;;;4978287;28;20018;-84
2021/06/29 02:49:00;;;;;;;2.75;1.90;;;18.30;99.90;;;;;;4995942;28;20018;-84
2021/06/29 02:51:26;;;;;;;6.10;2.10;;;18.20;99.90;;;;;;4978243;28;20161;-84
2021/06/29 02:53:51;;;;;;;4.25;2.00;;;18.00;99.90;;;;;;4995873;28;20477;-84
2021/06/29 02:59:01;;;;;;;9.90;2.25;;;18.10;99.90;;;;;;4996099;28;20033;-84
2021/06/29 03:01:27;;;;;;;7.43;2.17;;;18.20;99.90;;;;;;4977631;28;20386;-84
2021/06/29 03:03:53;;;;;;;5.70;2.08;;;18.10;99.90;;;;;;4977961;28;20026;-85
2021/06/29 03:06:19;;;;;;;8.60;2.10;;;18.00;99.90;;;;;;4977892;28;20026;-84
2021/06/29 03:08:44;;;;;;;3.83;2.58;;;17.90;99.90;;;;;;4977830;28;20034;-84
2021/06/29 03:11:10;;;;;;;3.38;1.95;;;18.00;99.90;;;;;;4995237;28;20026;-84
2021/06/29 03:13:36;;;;;;;4.50;2.15;;;18.40;99.90;;;;;;4977744;28;20048;-84
2021/06/29 03:16:02;;;;;;;4.18;2.30;;;18.40;99.90;;;;;;4995447;28;20034;-84
2021/06/29 03:18:28;;;;;;;7.20;2.33;;;18.40;99.90;;;;;;4977718;28;20037;-85
2021/06/29 03:20:53;;;;;;;7.78;1.90;;;18.40;99.90;;;;;;4977659;28;20477;-84
2021/06/29 03:23:19;;;;;;;6.28;1.83;;;18.30;99.90;;;;;;4995065;28;20023;-84
2021/06/29 03:25:45;;;;;;;5.53;1.90;;;18.30;99.90;;;;;;4977593;28;20024;-84
2021/06/29 03:28:10;;;;;;;4.15;2.00;;;18.20;99.90;;;;;;4994976;28;20109;-84
2021/06/29 03:30:36;;;;;;;4.18;1.63;;;18.30;99.90;;;;;;4977505;28;20022;-84
2021/06/29 03:33:02;;;;;;;3.55;1.90;;;18.20;99.90;;;;;;4977478;28;20084;-84
2021/06/29 03:35:28;;;;;;;3.95;1.98;;;18.20;99.90;;;;;;4976775;28;20023;-84
2021/06/29 03:37:53;;;;;;;4.15;1.70;;;18.20;99.90;;;;;;4977322;28;20385;-84
2021/06/29 03:40:19;;;;;;;6.07;1.98;;;18.10;99.90;;;;;;4977294;28;20027;-84
2021/06/29 03:42:45;;;;;;;5.65;1.85;;;18.10;99.90;;;;;;4994882;28;20035;-84
2021/06/29 03:45:11;;;;;;;6.43;2.20;;;18.10;99.90;;;;;;4977149;28;20026;-84
2021/06/29 03:47:36;;;;;;;6.55;2.50;;;18.10;99.90;;;;;;4994581;28;20110;-84
2021/06/29 03:50:04;;;;;;;4.10;1.65;;;18.20;99.90;;;;;;4977146;28;20486;-84
2021/06/29 03:52:29;;;;;;;5.32;1.70;;;18.20;99.90;;;;;;4994461;28;20034;-84
2021/06/29 03:54:56;;;;;;;4.82;1.77;;;18.40;99.90;;;;;;4977023;28;20077;-84
2021/06/29 03:57:21;;;;;;;3.97;2.10;;;18.30;99.90;;;;;;4977004;28;20037;-84
2021/06/29 03:59:47;;;;;;;5.65;2.25;;;18.30;99.90;;;;;;4976674;28;20493;-84
2021/06/29 04:02:13;;;;;;;5.57;2.50;;;18.30;99.90;;;;;;4976860;28;20030;-84
2021/06/29 04:04:39;;;;;;;4.45;2.20;;;18.10;99.90;;;;;;4994364;28;20101;-84
2021/06/29 04:07:07;;;;;;;6.13;2.22;;;18.00;99.90;;;;;;4977171;28;20046;-84
2021/06/29 04:09:33;;;;;;;5.20;1.77;;;18.20;99.90;;;;;;4976824;28;20041;-84
2021/06/29 04:11:59;;;;;;;6.22;2.17;;;18.50;99.90;;;;;;4976771;28;20488;-84
2021/06/29 04:14:24;;;;;;;2.35;1.80;;;18.50;99.90;;;;;;4976736;28;20033;-84
2021/06/29 04:16:50;;;;;;;5.88;2.00;;;18.40;99.90;;;;;;4976897;28;20038;-84
2021/06/29 04:19:16;;;;;;;5.55;2.30;;;18.30;99.90;;;;;;4976789;28;20026;-84
2021/06/29 04:21:42;;;;;;;6.95;2.22;;;18.40;99.90;;;;;;4976558;28;20375;-84
2021/06/29 04:24:08;;;;;;;4.05;1.60;;;18.20;99.90;;;;;;4976715;28;20026;-84
2021/06/29 04:26:34;;;;;;;4.63;1.67;;;18.30;99.90;;;;;;4976635;28;20478;-84
2021/06/29 04:29:00;;;;;;;6.10;1.98;;;18.30;99.90;;;;;;4976565;28;20512;-84
2021/06/29 04:31:27;;;;;;;6.85;1.95;;;18.30;99.90;;;;;;4976797;28;20027;-84
2021/06/29 04:33:54;;;;;;;5.45;1.95;;;18.40;99.90;;;;;;4976523;28;20396;-84
2021/06/29 04:36:20;;;;;;;3.13;1.30;;;18.30;99.90;;;;;;4976524;28;20033;-84
2021/06/29 04:38:45;;;;;;;3.80;1.70;;;18.20;99.90;;;;;;4976447;28;20474;-84
2021/06/29 04:41:11;;;;;;;10.93;1.80;;;18.20;99.90;;;;;;4976398;28;20030;-84
2021/06/29 04:43:40;;;;;;;2.70;1.60;;;18.20;99.90;;;;;;4976502;28;20029;-84
2021/06/29 04:46:06;;;;;;;3.15;1.70;;;18.20;99.90;;;;;;4976396;28;20114;-84
2021/06/29 04:48:34;;;;;;;6.15;1.83;;;18.30;99.90;;;;;;4978321;28;20050;-84
2021/06/29 04:51:00;;;;;;;3.85;1.80;;;18.20;99.90;;;;;;4980410;28;20022;-84
2021/06/29 04:53:25;;;;;;;7.22;1.77;;;18.20;99.90;;;;;;4980330;28;20500;-84
2021/06/29 04:55:51;;;;;;;2.08;1.60;;;18.30;99.90;;;;;;4980251;28;20045;-84
2021/06/29 04:58:17;;;;;;;8.32;2.17;;;18.40;99.90;;;;;;4980293;28;20026;-84
2021/06/29 05:00:45;;;;;;;2.88;1.60;;;18.60;99.90;;;;;;4997350;28;20125;-84
2021/06/29 05:03:11;;;;;;;9.80;4.50;;;18.60;99.90;;;;;;4980097;28;20033;-87
2021/06/29 05:05:37;;;;;;;6.47;2.00;;;18.50;99.90;;;;;;4980188;28;20022;-86
2021/06/29 05:08:03;;;;;;;4.57;1.80;;;18.50;99.90;;;;;;4980152;28;20104;-86
2021/06/29 05:10:29;;;;;;;4.60;1.88;;;18.50;99.90;;;;;;4979975;28;20076;-85
2021/06/29 05:12:55;;;;;;;7.47;2.20;;;18.40;99.90;;;;;;4997501;28;20031;-85
2021/06/29 05:15:20;;;;;;;4.88;1.85;;;18.30;99.90;;;;;;4997706;28;20393;-85
2021/06/29 05:17:46;;;;;;;3.47;1.63;;;18.40;99.90;;;;;;4979963;28;20374;-85
2021/06/29 05:20:12;;;;;;;2.97;1.88;;;18.50;99.90;;;;;;4997382;28;20022;-86
2021/06/29 05:22:38;;;;;;;4.45;1.58;;;18.70;99.90;;;;;;4979744;28;20120;-86
2021/06/29 05:25:05;;;;;;;4.32;1.67;;;18.70;99.90;;;;;;4997270;28;20078;-86
2021/06/29 05:27:31;;;;;;;5.90;1.73;;;18.70;99.90;;;;;;4979674;28;20026;-86
2021/06/29 05:29:58;;;;;;;4.00;1.90;;;18.60;99.90;;;;;;4979743;28;20117;-86
2021/06/29 05:32:23;;;;;;;3.92;1.60;;;18.60;99.90;;;;;;4979703;28;20058;-86
2021/06/29 05:34:49;;;;;;;6.32;1.80;;;18.50;99.90;;;;;;4997369;28;20485;-85
2021/06/29 05:37:15;;;;;;;5.03;1.73;;;18.60;99.90;;;;;;4979585;28;20120;-85
2021/06/29 05:39:41;;;;;;;11.52;1.80;;;18.60;99.90;;;;;;4979508;28;20119;-86
2021/06/29 05:42:07;;;;;;;4.22;1.70;;;18.80;99.90;;;;;;4980220;28;20033;-86
2021/06/29 05:44:32;;;;;;;2.28;1.50;;;18.90;99.90;;;;;;4979361;28;20031;-86
2021/06/29 05:47:03;;;;;;;2.85;1.67;;;18.90;99.90;;;;;;4979417;28;20386;-86
2021/06/29 05:49:28;;;;;;;5.05;1.83;;;18.90;99.90;;;;;;4980187;28;20026;-86
2021/06/29 05:51:54;;;;;;;3.70;1.50;;;18.90;99.90;;;;;;4996759;28;20362;-87
2021/06/29 05:54:20;;;;;;;3.15;1.50;;;18.80;99.90;;;;;;4979256;28;20026;-85
2021/06/29 05:56:45;;;;;;;3.55;1.60;;;18.90;99.90;;;;;;4979216;28;20122;-86
2021/06/29 05:59:11;;;;;;;4.07;1.40;;;18.80;99.90;;;;;;4978605;28;20034;-85
2021/06/29 06:01:37;;;;;;;6.22;1.50;;;18.80;99.90;;;;;;4978862;28;20053;-86
2021/06/29 06:04:03;;;;;;;3.13;1.45;;;18.90;99.90;;;;;;4979089;28;20053;-86
2021/06/29 06:06:29;;;;;;;4.70;1.45;;;19.00;99.90;;;;;;4978953;28;20092;-86
2021/06/29 06:08:54;;;;;;;3.20;1.67;;;19.00;99.90;;;;;;4996425;28;20093;-85
2021/06/29 06:11:20;;;;;;;5.13;1.50;;;19.10;99.90;;;;;;4979005;28;20514;-88
2021/06/29 06:13:46;;;;;;;2.90;1.33;;;19.30;99.90;;;;;;4978888;28;20143;-88
2021/06/29 06:16:12;;;;;;;5.22;1.35;;;19.20;99.90;;;;;;4996451;28;20054;-88
2021/06/29 06:18:39;;;;;;;2.05;1.20;;;19.20;99.90;;;;;;4979053;28;20482;-88
2021/06/29 06:21:05;;;;;;;5.60;1.70;;;19.30;99.90;;;;;;4978765;28;20022;-88
2021/06/29 06:23:31;;;;;;;6.82;1.35;;;19.40;99.90;;;;;;4978854;28;20026;-88
2021/06/29 06:25:57;;;;;;;2.40;1.38;;;19.40;99.90;;;;;;4978747;28;20363;-88
2021/06/29 06:28:22;;;;;;;1.42;1.15;;;19.40;99.90;;;;;;4996260;28;20081;-88
2021/06/29 06:30:48;;;;;;;6.55;1.50;;;19.30;99.90;;;;;;4978926;28;20029;-87
2021/06/29 06:33:14;;;;;;;2.30;1.35;;;19.30;99.90;;;;;;4978903;28;20458;-88
2021/06/29 06:35:40;;;;;;;1.77;1.20;;;19.30;99.90;;;;;;4979009;28;20054;-88
2021/06/29 06:38:05;;;;;;;1.98;1.40;;;19.20;99.90;;;;;;4996596;28;20061;-88
2021/06/29 06:40:31;;;;;;;2.40;1.05;;;19.10;99.90;;;;;;4992924;28;20026;-87
2021/06/29 06:42:57;;;;;;;3.53;1.08;;;19.20;99.90;;;;;;4990804;28;20385;-88
2021/06/29 06:45:24;;;;;;;4.60;1.50;;;19.30;99.90;;;;;;4980215;28;20434;-87
2021/06/29 06:47:51;;;;;;;2.47;1.20;;;19.30;99.90;;;;;;4979024;28;20026;-87
2021/06/29 06:50:17;;;;;;;1.20;1.05;;;19.20;99.90;;;;;;4978498;28;20437;-87
2021/06/29 06:52:42;;;;;;;3.60;1.15;;;19.40;99.90;;;;;;4978457;28;20177;-89
2021/06/29 06:55:08;;;;;;;2.08;1.08;;;19.50;99.90;;;;;;4978672;28;20029;-88
2021/06/29 06:57:35;;;;;;;5.22;1.15;;;19.60;99.90;;;;;;4978508;28;20377;-87
2021/06/29 07:00:00;;;;;;;3.08;1.10;;;19.70;99.90;;;;;;4978152;28;20054;-88
2021/06/29 07:02:26;;;;;;;4.28;1.17;;;19.80;99.90;;;;;;4978185;28;20030;-88
2021/06/29 07:04:52;;;;;;;1.83;0.98;;;19.80;99.90;;;;;;4978703;28;20026;-88
2021/06/29 07:07:18;;;;;;;3.30;1.00;;;19.80;99.90;;;;;;4977972;28;20362;-87
2021/06/29 07:09:44;;;;;;;2.35;0.90;;;19.90;99.90;;;;;;4977666;28;20433;-87
2021/06/29 07:12:10;;;;;;;1.73;0.98;;;20.10;99.90;;;;;;4977288;28;20041;-86
2021/06/29 07:14:36;;;;;;;1.45;1.00;;;20.20;99.90;;;;;;4995243;28;20030;-86
2021/06/29 07:17:02;;;;;;;5.43;1.10;;;20.10;99.90;;;;;;4977742;28;20023;-86
2021/06/29 07:19:28;;;;;;;3.90;0.93;;;20.30;99.90;;;;;;4995145;28;20033;-86
2021/06/29 07:21:54;;;;;;;1.70;0.95;;;20.40;99.90;;;;;;4995287;28;20381;-86
2021/06/29 07:24:19;;;;;;;1.52;0.77;;;20.40;99.90;;;;;;4977595;28;20029;-86
2021/06/29 07:26:45;;;;;;;1.55;0.82;;;20.40;99.90;;;;;;4977808;28;20038;-85
2021/06/29 07:29:11;;;;;;;1.88;0.85;;;20.40;99.90;;;;;;4994907;28;20425;-86
2021/06/29 07:31:37;;;;;;;2.63;1.00;;;20.30;99.90;;;;;;4977449;28;20049;-86
2021/06/29 07:34:02;;;;;;;0.90;0.80;;;20.30;99.90;;;;;;4977381;28;20033;-85
2021/06/29 07:36:28;;;;;;;1.88;1.13;;;20.40;99.90;;;;;;4977418;28;20034;-85
2021/06/29 07:38:55;;;;;;;3.05;1.20;;;20.30;99.90;;;;;;4977254;28;20054;-85
2021/06/29 07:41:22;;;;;;;1.55;0.95;;;20.40;99.90;;;;;;4994682;28;20038;-85
2021/06/29 07:43:48;;;;;;;1.50;0.88;;;20.30;99.90;;;;;;4977189;28;20113;-85
2021/06/29 07:46:13;;;;;;;2.33;1.23;;;20.30;99.90;;;;;;4994632;28;20106;-83
2021/06/29 07:48:40;;;;;;;4.93;0.90;;;20.40;99.90;;;;;;4977106;28;20073;-83
2021/06/29 07:51:08;;;;;;;2.80;1.13;;;20.50;99.90;;;;;;4977078;28;20030;-84
2021/06/29 07:53:34;;;;;;;2.22;0.80;;;20.60;99.90;;;;;;4977245;28;20085;-85
2021/06/29 07:56:00;;;;;;;1.00;0.70;;;20.80;99.90;;;;;;4976956;28;20067;-84
2021/06/29 07:58:27;;;;;;;1.83;0.80;;;21.00;99.90;;;;;;4976991;28;20391;-83
2021/06/29 08:00:53;;;;;;;1.30;0.60;;;21.10;99.90;;;;;;4976561;28;20125;-83
2021/06/29 08:03:18;;;;;;;4.28;0.73;;;20.90;99.90;;;;;;4976894;28;20113;-83
2021/06/29 08:05:44;;;;;;;1.30;0.77;;;20.90;99.90;;;;;;4976871;28;20529;-83
2021/06/29 08:08:10;;;;;;;2.13;1.08;;;21.00;99.90;;;;;;4976774;28;20445;-83
2021/06/29 08:10:36;;;;;;;2.50;0.70;;;20.90;99.90;;;;;;4976756;28;20116;-83
2021/06/29 08:13:06;;;;;;;0.98;0.60;;;21.00;99.90;;;;;;4994141;28;20077;-84
2021/06/29 08:15:32;;;;;;;1.95;0.88;;;21.10;99.90;;;;;;4976731;28;20029;-83
2021/06/29 08:17:58;;;;;;;0.50;0.50;;;21.10;99.90;;;;;;4976577;28;20026;-83
2021/06/29 08:20:24;;;;;;;1.20;0.60;;;21.10;99.90;;;;;;4976627;28;20022;-82
2021/06/29 08:22:52;;;;;;;2.00;0.60;;;21.10;99.90;;;;;;4995983;28;20026;-82
2021/06/29 08:25:21;;;;;;;2.13;0.90;;;21.20;99.90;;;;;;4976673;28;20413;-83
2021/06/29 08:27:48;;;;;;;1.83;0.60;;;21.30;99.90;;;;;;4976584;28;20098;-83
2021/06/29 08:30:14;;;;;;;3.25;0.70;;;21.30;99.90;;;;;;4976567;28;20057;-83
2021/06/29 08:32:40;;;;;;;1.20;0.77;;;21.40;99.90;;;;;;4976492;28;20066;-83
2021/06/29 08:35:10;;;;;;;1.30;0.70;;;21.60;99.90;;;;;;4976522;28;20056;-83
2021/06/29 08:37:38;;;;;;;1.23;0.80;;;21.70;99.90;;;;;;4976488;28;20030;-82
2021/06/29 08:40:05;;;;;;;1.30;0.73;;;21.70;99.90;;;;;;4993892;28;20390;-83
2021/06/29 08:42:34;;;;;;;2.60;0.80;;;22.00;99.90;;;;;;4976329;28;20121;-82
2021/06/29 08:45:05;;;;;;;2.92;0.82;;;22.20;99.90;;;;;;4976442;28;20429;-82
2021/06/29 08:47:33;;;;;;;2.40;1.08;;;22.20;99.90;;;;;;4976406;28;20085;-81
2021/06/29 08:50:00;;;;;;;1.90;0.63;;;21.90;99.90;;;;;;4993820;28;20392;-81
2021/06/29 08:52:26;;;;;;;0.80;0.70;;;22.10;99.90;;;;;;4976342;28;20081;-83
2021/06/29 08:54:53;;;;;;;2.10;0.80;;;21.70;99.90;;;;;;4976404;28;20037;-83
2021/06/29 08:57:18;;;;;;;3.33;1.15;;;21.80;99.90;;;;;;4976378;28;20061;-83
2021/06/29 08:59:44;;;;;;;0.68;0.68;;;22.10;99.90;;;;;;4976094;28;20068;-83
2021/06/29 09:02:10;;;;;;;0.88;0.60;;;22.30;99.90;;;;;;4976271;28;20030;-83
2021/06/29 09:04:47;;;;;;;2.15;0.88;;;22.50;99.90;;;;;;4976829;28;20057;-83
2021/06/29 09:07:17;;;;;;;1.38;0.70;;;22.60;99.90;;;;;;4976180;28;20026;-82
2021/06/29 09:09:54;;;;;;;3.90;0.80;;;22.90;99.90;;;;;;4976180;28;20026;-83
2021/06/29 09:12:42;;;;;;;1.70;1.00;;;23.50;99.90;;;;;;4976203;28;20034;-83
2021/06/29 09:15:28;;;;;;;6.40;1.02;;;23.60;99.90;;;;;;4976141;28;20060;-83
2021/06/29 09:17:57;;;;;;;2.83;0.80;;;23.80;99.90;;;;;;4976119;28;20489;-82
2021/06/29 09:20:31;;;;;;;3.97;0.70;;;23.70;99.90;;;;;;4976368;28;20030;-83
2021/06/29 09:23:07;;;;;;;3.92;0.80;;;24.00;99.90;;;;;;4975992;28;20481;-83
2021/06/29 09:25:32;;;;;;;4.50;1.00;;;24.10;99.90;;;;;;4976137;28;20138;-84
2021/06/29 09:27:58;;;;;;;3.92;0.80;;;24.20;99.90;;;;;;4976124;28;20105;-82
2021/06/29 09:31:00;;;;;;;6.28;0.93;;;24.40;99.90;;;;;;4976034;28;20061;-83
2021/06/29 09:33:35;;;;;;;1.75;0.80;;;24.10;99.90;;;;;;4959430;28;20038;-82
2021/06/29 09:36:07;;;;;;;4.47;0.82;;;24.00;99.90;;;;;;4997082;28;20018;-82
2021/06/29 09:38:36;;;;;;;3.00;1.10;;;23.90;99.90;;;;;;4979563;28;20019;-83
2021/06/29 09:41:08;;;;;;;1.83;0.93;;;23.50;99.90;;;;;;4979406;28;20393;-82
2021/06/29 09:43:39;;;;;;;5.47;1.13;;;23.20;99.90;;;;;;5003732;28;20032;-82
2021/06/29 09:46:13;;;;;;;2.65;1.05;;;23.20;99.90;;;;;;4998175;28;20022;-83
2021/06/29 09:48:45;;;;;;;1.25;0.80;;;23.30;99.90;;;;;;4979480;28;20027;-82
2021/06/29 09:51:24;;;;;;;2.90;0.80;;;23.80;99.90;;;;;;4996810;28;20057;-83
2021/06/29 09:53:52;;;;;;;1.15;0.70;;;24.40;99.90;;;;;;4997044;28;20058;-83
2021/06/29 09:56:26;;;;;;;5.78;1.05;;;25.00;99.90;;;;;;4979202;28;20026;-82
2021/06/29 09:58:59;;;;;;;1.48;0.77;;;25.20;99.90;;;;;;4979235;28;20034;-81
2021/06/29 10:01:29;;;;;;;3.35;1.10;;;25.10;99.90;;;;;;4978937;28;20526;-82
2021/06/29 10:03:56;;;;;;;5.53;0.90;;;25.80;99.90;;;;;;4996556;28;20054;-82
2021/06/29 10:06:23;;;;;;;2.13;0.80;;;25.50;99.90;;;;;;4996428;28;20036;-81
2021/06/29 10:08:51;;;;;;;1.95;0.95;;;25.30;99.90;;;;;;4996520;28;20093;-82
2021/06/29 10:11:22;;;;;;;2.25;1.10;;;25.30;99.90;;;;;;4978992;28;20026;-82
2021/06/29 10:13:59;;;;;;;3.50;1.00;;;25.50;99.90;;;;;;4978936;28;20035;-82
2021/06/29 10:16:39;;;;;;;1.45;0.95;;;25.30;99.90;;;;;;4978812;28;20043;-81
2021/06/29 10:22:01;;;;;;;1.45;0.80;;;24.90;99.90;;;;;;4996516;28;20026;-82
2021/06/29 10:24:30;;;;;;;2.35;0.80;;;25.10;99.90;;;;;;4968805;28;20037;-82
2021/06/29 10:26:57;;;;;;;1.65;0.85;;;25.10;99.90;;;;;;4996027;28;20029;-82
2021/06/29 10:29:25;;;;;;;1.83;0.75;;;25.60;99.90;;;;;;4978605;28;20113;-82
2021/06/29 10:31:56;;;;;;;2.42;0.80;;;26.10;99.90;;;;;;4978590;28;20461;-82
2021/06/29 10:34:24;;;;;;;1.30;0.98;;;26.50;99.90;;;;;;4996040;28;20421;-82
2021/06/29 10:36:52;;;;;;;1.35;1.00;;;27.10;99.90;;;;;;4978448;28;20379;-82
2021/06/29 10:39:21;;;;;;;2.08;0.70;;;26.90;99.90;;;;;;4978535;28;20445;-82
2021/06/29 10:41:51;;;;;;;1.40;0.77;;;27.00;99.90;;;;;;4978341;28;20023;-83
2021/06/29 10:44:19;;;;;;;2.88;0.80;;;27.00;99.90;;;;;;4978392;28;20500;-82
2021/06/29 10:46:51;;;;;;;1.83;0.88;;;27.30;99.90;;;;;;4978228;28;20026;-82
2021/06/29 10:49:35;;;;;;;1.83;0.85;;;27.90;99.90;;;;;;4978289;28;20022;-82
2021/06/29 10:52:21;;;;;;;1.15;0.63;;;28.50;99.90;;;;;;4978181;28;20034;-83
2021/06/29 10:54:51;;;;;;;2.85;0.85;;;28.60;99.90;;;;;;4978173;28;20048;-83
2021/06/29 10:57:26;;;;;;;2.85;0.63;;;28.50;99.90;;;;;;4995627;28;20030;-83
2021/06/29 10:59:58;;;;;;;2.35;0.70;;;28.00;99.90;;;;;;4995548;28;20048;-83
2021/06/29 11:02:32;;;;;;;1.88;0.60;;;27.60;99.90;;;;;;4995703;28;20441;-84
2021/06/29 11:05:09;;;;;;;0.90;0.60;;;28.00;99.90;;;;;;4977976;28;20145;-84
2021/06/29 11:07:44;;;;;;;3.03;0.80;;;27.70;99.90;;;;;;4978036;28;20026;-84
2021/06/29 11:10:25;;;;;;;3.15;0.80;;;27.40;99.90;;;;;;4978081;28;20030;-84
2021/06/29 11:12:53;;;;;;;2.08;0.70;;;27.50;99.90;;;;;;4995297;28;20028;-83
2021/06/29 11:15:38;;;;;;;1.88;0.80;;;27.90;99.90;;;;;;4977751;28;20038;-83
2021/06/29 11:18:04;;;;;;;1.25;0.70;;;27.80;99.90;;;;;;4977778;28;20044;-83
2021/06/29 11:20:53;;;;;;;1.13;0.63;;;27.70;99.90;;;;;;4995117;28;20034;-84
2021/06/29 11:23:19;;;;;;;1.77;0.55;;;27.60;99.90;;;;;;4970133;28;20485;-83
2021/06/29 11:25:52;;;;;;;3.50;0.80;;;27.20;99.90;;;;;;4977437;28;20113;-84
2021/06/29 11:28:28;;;;;;;1.70;0.80;;;27.40;99.90;;;;;;4977718;28;20046;-83
2021/06/29 11:31:01;;;;;;;1.33;0.70;;;27.60;99.90;;;;;;4977478;28;20092;-83
2021/06/29 11:33:56;;;;;;;1.50;0.70;;;27.60;99.90;;;;;;4977538;28;20027;-84
2021/06/29 11:36:37;;;;;;;2.50;0.70;;;27.60;99.90;;;;;;4977633;28;20063;-83
2021/06/29 11:39:18;;;;;;;1.58;0.65;;;27.50;99.90;;;;;;4977324;28;20022;-83
2021/06/29 11:42:01;;;;;;;2.65;0.70;;;27.90;99.90;;;;;;4994659;28;20046;-84
2021/06/29 11:44:28;;;;;;;1.33;0.53;;;27.90;99.90;;;;;;4978193;28;20046;-83
2021/06/29 11:47:05;;;;;;;0.80;0.60;;;27.60;99.90;;;;;;4977397;28;20783;-83
2021/06/29 11:49:49;;;;;;;3.45;0.73;;;27.10;99.90;;;;;;4977156;28;20121;-84
2021/06/29 11:52:15;;;;;;;1.67;0.70;;;26.80;99.90;;;;;;4994843;28;20084;-83
2021/06/29 11:55:12;;;;;;;1.33;0.63;;;26.60;99.90;;;;;;4977064;28;20042;-83
2021/06/29 11:57:56;;;;;;;1.30;0.70;;;26.40;99.90;;;;;;4976580;28;20026;-83
2021/06/29 12:00:36;;;;;;;2.83;0.80;;;26.30;99.90;;;;;;4994072;28;20042;-83
2021/06/29 12:03:07;;;;;;;4.28;0.80;;;26.10;99.90;;;;;;4994256;28;20122;-83
2021/06/29 12:05:36;;;;;;;2.22;0.90;;;26.30;99.90;;;;;;4976838;28;20470;-82
2021/06/29 12:08:06;;;;;;;5.68;0.82;;;26.40;99.90;;;;;;4976866;28;20022;-83
2021/06/29 12:10:42;;;;;;;3.08;0.70;;;26.40;99.90;;;;;;4976794;28;20531;-83
2021/06/29 12:13:25;;;;;;;1.35;0.70;;;26.50;99.90;;;;;;4976860;28;20023;-83
2021/06/29 12:15:53;;;;;;;6.28;0.70;;;26.40;99.90;;;;;;4976805;28;20080;-82
2021/06/29 12:18:28;;;;;;;0.75;0.60;;;26.10;99.90;;;;;;4994472;28;20101;-82
2021/06/29 12:21:01;;;;;;;1.83;0.50;;;25.70;99.90;;;;;;4994148;28;20029;-82
2021/06/29 12:23:37;;;;;;;1.33;0.60;;;25.40;99.90;;;;;;4976705;28;20552;-82
2021/06/29 12:26:08;;;;;;;1.48;0.70;;;24.90;99.90;;;;;;4976690;28;20018;-82
2021/06/29 12:28:38;;;;;;;1.63;0.70;;;24.70;99.90;;;;;;4994039;28;20029;-82
2021/06/29 12:31:11;;;;;;;0.93;0.60;;;24.20;99.90;;;;;;4976598;28;20023;-83
2021/06/29 12:33:44;;;;;;;4.23;0.70;;;23.90;99.90;;;;;;4976693;28;20034;-83
2021/06/29 12:36:13;;;;;;;4.22;0.63;;;22.90;99.90;;;;;;4976512;28;20061;-81
2021/06/29 12:38:45;;;;;;;5.70;1.10;;;22.10;99.90;;;;;;4993955;28;20023;-84
2021/06/29 12:41:20;;;;;;;3.90;0.90;;;20.90;99.90;;;;;;4976368;28;20037;-82
2021/06/29 12:43:47;;;;;;;5.03;1.02;;;19.80;99.90;;;;;;4976413;28;20037;-83
2021/06/29 12:46:31;;;;;;;3.55;0.60;;;19.30;99.90;;;;;;4976394;28;20500;-82
2021/06/29 12:49:01;;;;;;;1.60;0.50;;;19.10;99.90;;;;;;4994042;28;20094;-83
2021/06/29 12:51:31;;;;;;;1.33;0.47;;;18.80;99.90;;;;;;4994154;28;20110;-83
2021/06/29 12:53:59;;;;;;;3.90;1.42;;;18.70;99.90;;;;;;4993794;28;20031;-84
2021/06/29 12:56:42;;;;;;;7.18;1.20;;;18.10;99.90;;;;;;4976308;28;20031;-83
2021/06/29 12:59:10;;;;;;;4.45;1.52;;;17.80;99.90;;;;;;4976380;28;20030;-82
2021/06/29 13:01:40;;;;;;;5.45;1.00;;;17.50;99.90;;;;;;4993492;28;20073;-82